Time;durP1;ratioP1;P1;durP2;ratioP2;P2;SDS_P1;SDS_P2;PMS_P1;PMS_P2;Temp;Humidity;BMP_temperature;BMP_pressure;BME280_temperature;BME280_humidity;BME280_pressure;Samples;Min_cycle;Max_cycle;Signal;HPM_P1;HPM_P2
2022/05/11 00:00:18;;;;;;;10.30;9.30;;;17.30;65.70;;;;;;4996336;28;20511;-73
2022/05/11 00:02:45;;;;;;;11.53;10.37;;;17.30;66.50;;;;;;4997018;28;20810;-74
2022/05/11 00:05:14;;;;;;;11.63;10.50;;;17.20;66.70;;;;;;4996935;28;20431;-73
2022/05/11 00:07:42;;;;;;;10.73;9.70;;;17.20;67.10;;;;;;4996558;28;20971;-74
2022/05/11 00:10:12;;;;;;;11.73;10.53;;;17.20;67.70;;;;;;4996286;28;20433;-72
2022/05/11 00:12:40;;;;;;;10.60;9.60;;;17.10;68.20;;;;;;4996775;28;20498;-72
2022/05/11 00:15:09;;;;;;;10.50;9.50;;;17.10;68.70;;;;;;4996601;28;20514;-73
2022/05/11 00:17:36;;;;;;;11.33;10.30;;;17.00;68.90;;;;;;4996289;28;20545;-74
2022/05/11 00:20:03;;;;;;;11.10;10.00;;;17.00;69.30;;;;;;4996250;28;20558;-73
2022/05/11 00:22:30;;;;;;;11.43;10.53;;;17.00;69.50;;;;;;4996539;28;20503;-74
2022/05/11 00:24:58;;;;;;;10.50;9.60;;;17.00;69.50;;;;;;4996135;28;20558;-73
2022/05/11 00:27:25;;;;;;;11.20;10.10;;;17.00;69.10;;;;;;4996554;28;20451;-74
2022/05/11 00:29:52;;;;;;;10.37;9.07;;;17.10;69.20;;;;;;4996348;28;20494;-74
2022/05/11 00:32:19;;;;;;;12.30;11.07;;;17.00;69.60;;;;;;4995894;28;20479;-74
2022/05/11 00:34:46;;;;;;;11.00;10.00;;;17.00;69.50;;;;;;4996841;28;20462;-74
2022/05/11 00:37:13;;;;;;;12.13;10.90;;;17.00;70.50;;;;;;4998858;28;20519;-74
2022/05/11 00:39:39;;;;;;;12.20;11.10;;;16.90;71.30;;;;;;5014248;28;20755;-74
2022/05/11 00:42:08;;;;;;;11.67;10.53;;;16.90;72.30;;;;;;5005039;28;20510;-73
2022/05/11 00:44:36;;;;;;;12.93;11.63;;;16.90;73.50;;;;;;5016583;28;20482;-75
2022/05/11 00:47:07;;;;;;;11.47;10.37;;;16.90;73.90;;;;;;5010255;28;20427;-73
2022/05/11 00:49:39;;;;;;;12.47;11.27;;;16.80;73.80;;;;;;4996946;28;20466;-74
2022/05/11 00:52:11;;;;;;;12.17;10.97;;;16.80;73.80;;;;;;4999981;28;20499;-73
2022/05/11 00:54:44;;;;;;;12.20;11.10;;;16.70;74.60;;;;;;5014091;28;20535;-73
2022/05/11 00:57:23;;;;;;;12.03;10.83;;;16.70;75.40;;;;;;5015809;28;20468;-73
2022/05/11 00:59:53;;;;;;;12.57;10.60;;;16.70;75.70;;;;;;5014353;28;20482;-73
2022/05/11 01:02:22;;;;;;;11.47;10.47;;;16.70;76.10;;;;;;5006305;28;20503;-74
2022/05/11 01:04:52;;;;;;;12.30;11.10;;;16.60;76.00;;;;;;5000028;28;20550;-74
2022/05/11 01:07:19;;;;;;;11.77;10.67;;;16.60;75.90;;;;;;5002942;28;20443;-73
2022/05/11 01:09:46;;;;;;;11.27;10.17;;;16.50;76.10;;;;;;4999620;28;20559;-74
2022/05/11 01:12:19;;;;;;;13.00;11.63;;;16.40;77.10;;;;;;4998842;28;20472;-73
2022/05/11 01:14:51;;;;;;;11.47;10.47;;;16.30;77.70;;;;;;5000712;28;20444;-75
2022/05/11 01:17:19;;;;;;;12.47;11.13;;;16.30;78.40;;;;;;5003923;28;20495;-74
2022/05/11 01:19:48;;;;;;;11.87;10.87;;;16.30;78.80;;;;;;5004134;28;20513;-73
2022/05/11 01:22:21;;;;;;;12.77;11.60;;;16.20;79.70;;;;;;5011447;28;21026;-73
2022/05/11 01:24:50;;;;;;;12.97;11.67;;;16.20;80.30;;;;;;5015952;28;20407;-74
2022/05/11 01:27:27;;;;;;;12.30;11.20;;;16.20;80.90;;;;;;5017075;28;20451;-73
2022/05/11 01:29:54;;;;;;;12.07;11.00;;;16.10;81.80;;;;;;5016902;28;20462;-75
2022/05/11 01:32:23;;;;;;;12.33;11.13;;;16.10;82.20;;;;;;5017008;28;20446;-74
2022/05/11 01:34:54;;;;;;;12.60;11.40;;;16.10;82.30;;;;;;5017157;28;20442;-73
2022/05/11 01:37:21;;;;;;;11.97;10.83;;;16.10;82.70;;;;;;5008255;28;20442;-74
2022/05/11 01:39:50;;;;;;;12.10;10.90;;;16.10;82.70;;;;;;5003616;28;20464;-74
2022/05/11 01:42:18;;;;;;;11.63;10.60;;;16.10;82.70;;;;;;5000822;28;20529;-73
2022/05/11 01:44:45;;;;;;;13.27;12.07;;;16.10;82.90;;;;;;4995010;28;20542;-73
2022/05/11 01:47:11;;;;;;;12.67;11.40;;;16.10;83.70;;;;;;4994457;28;20455;-73
2022/05/11 01:49:38;;;;;;;12.00;10.80;;;16.10;83.90;;;;;;4993951;28;20422;-74
2022/05/11 01:52:06;;;;;;;12.20;11.07;;;16.10;84.00;;;;;;4994585;28;20460;-75
2022/05/11 01:54:33;;;;;;;11.97;10.80;;;16.00;84.00;;;;;;4994217;28;20487;-73
2022/05/11 01:57:01;;;;;;;11.50;10.50;;;16.00;84.20;;;;;;4993993;28;20533;-73
2022/05/11 01:59:28;;;;;;;12.63;11.33;;;16.00;84.70;;;;;;4993971;28;20426;-74
2022/05/11 02:01:55;;;;;;;12.53;11.40;;;15.90;84.60;;;;;;4993943;28;20426;-73
2022/05/11 02:09:51;;;;;;;13.20;11.67;;;15.80;85.80;;;;;;4998042;28;20925;-74
2022/05/11 02:12:19;;;;;;;12.23;10.93;;;15.80;85.80;;;;;;4998128;28;20465;-74
2022/05/11 02:14:46;;;;;;;13.07;10.60;;;15.70;85.70;;;;;;4997995;28;20478;-74
2022/05/11 02:17:13;;;;;;;12.70;11.60;;;15.70;85.70;;;;;;4997530;28;20491;-73
2022/05/11 02:19:40;;;;;;;11.73;10.63;;;15.70;85.80;;;;;;4997546;28;20484;-73
2022/05/11 02:22:07;;;;;;;12.17;10.80;;;15.60;86.30;;;;;;4997582;28;20471;-74
2022/05/11 02:24:34;;;;;;;12.60;11.50;;;15.60;87.30;;;;;;4997676;28;20431;-73
2022/05/11 02:27:02;;;;;;;14.60;11.80;;;15.60;87.40;;;;;;4997786;28;20430;-74
2022/05/11 02:29:30;;;;;;;12.07;10.87;;;15.50;86.50;;;;;;4998079;28;20524;-73
2022/05/11 02:31:59;;;;;;;12.20;10.93;;;15.50;86.40;;;;;;4997773;28;20809;-76
2022/05/11 02:37:11;;;;;;;11.50;10.57;;;15.50;86.60;;;;;;4997671;28;20561;-73
2022/05/11 02:39:37;;;;;;;12.27;10.00;;;15.50;85.70;;;;;;4997558;28;20512;-73
2022/05/11 02:42:05;;;;;;;11.97;10.90;;;15.50;85.50;;;;;;4998313;28;20450;-73
2022/05/11 02:44:33;;;;;;;12.10;10.80;;;15.40;85.40;;;;;;4999315;28;20477;-73
2022/05/11 02:47:01;;;;;;;13.33;11.27;;;15.40;85.40;;;;;;4998451;28;20459;-73
2022/05/11 02:49:28;;;;;;;15.93;12.23;;;15.40;85.40;;;;;;4998910;28;20926;-74
2022/05/11 02:51:55;;;;;;;12.07;10.90;;;15.40;85.50;;;;;;5001716;28;20460;-73
2022/05/11 02:54:23;;;;;;;12.43;10.07;;;15.40;85.50;;;;;;4999615;28;20459;-74
2022/05/11 02:56:49;;;;;;;13.57;11.70;;;15.40;85.60;;;;;;4999917;28;20473;-73
2022/05/11 02:59:16;;;;;;;12.00;10.80;;;15.30;86.40;;;;;;5011015;28;20422;-75
2022/05/11 03:01:45;;;;;;;11.37;10.37;;;15.30;87.50;;;;;;5013848;28;20452;-72
2022/05/11 03:04:11;;;;;;;12.10;10.90;;;15.30;88.50;;;;;;5012074;28;20439;-74
2022/05/11 03:06:38;;;;;;;12.97;11.63;;;15.20;88.40;;;;;;5019293;28;20543;-74
2022/05/11 03:09:05;;;;;;;11.53;10.33;;;15.20;88.70;;;;;;4997775;28;20426;-73
2022/05/11 03:11:32;;;;;;;15.43;11.67;;;15.20;88.60;;;;;;4997227;28;20702;-74
2022/05/11 03:14:00;;;;;;;12.17;10.97;;;15.20;88.80;;;;;;4997178;28;20462;-73
2022/05/11 03:16:27;;;;;;;12.87;11.67;;;15.10;88.70;;;;;;4997869;28;20433;-74
2022/05/11 03:18:58;;;;;;;11.87;10.70;;;15.10;88.40;;;;;;4996818;28;20574;-73
2022/05/11 03:21:26;;;;;;;13.40;12.10;;;15.10;88.00;;;;;;4996839;28;20466;-73
2022/05/11 03:23:52;;;;;;;12.00;10.80;;;15.00;87.70;;;;;;4997408;28;20533;-73
2022/05/11 03:26:19;;;;;;;11.70;10.60;;;15.00;88.00;;;;;;4997550;28;20430;-73
2022/05/11 03:28:46;;;;;;;12.27;10.97;;;15.00;88.60;;;;;;4998110;28;20455;-74
2022/05/11 03:31:13;;;;;;;13.10;10.50;;;15.00;88.40;;;;;;4998005;28;20462;-72
2022/05/11 03:36:26;;;;;;;12.10;10.90;;;14.90;87.60;;;;;;5000531;28;20535;-73
2022/05/11 03:38:53;;;;;;;13.33;11.20;;;14.80;88.30;;;;;;5014611;28;20454;-74
2022/05/11 03:41:20;;;;;;;15.73;11.10;;;14.80;88.50;;;;;;5020200;28;20440;-74
2022/05/11 03:43:46;;;;;;;11.93;10.83;;;14.80;88.00;;;;;;5020139;28;20468;-74
2022/05/11 03:46:14;;;;;;;12.67;11.50;;;14.70;88.70;;;;;;5016354;28;20433;-72
2022/05/11 03:48:41;;;;;;;11.03;9.97;;;14.70;88.90;;;;;;5014660;28;20434;-73
2022/05/11 03:51:10;;;;;;;11.73;10.63;;;14.70;89.00;;;;;;5001494;28;20847;-73
2022/05/11 03:53:39;;;;;;;11.40;10.40;;;14.70;89.10;;;;;;4999111;28;20857;-74
2022/05/11 03:56:06;;;;;;;11.07;9.97;;;14.70;89.10;;;;;;4997092;28;20462;-73
2022/05/11 03:58:33;;;;;;;11.60;10.50;;;14.70;89.70;;;;;;4996688;28;20499;-74
2022/05/11 04:00:59;;;;;;;11.60;10.50;;;14.70;89.20;;;;;;4996220;28;20435;-75
2022/05/11 04:03:26;;;;;;;11.03;10.03;;;14.80;89.90;;;;;;4996782;28;20555;-74
2022/05/11 04:05:53;;;;;;;12.80;10.63;;;14.70;89.70;;;;;;4996166;28;20498;-74
2022/05/11 04:08:20;;;;;;;12.00;10.80;;;14.80;89.60;;;;;;4996367;28;20437;-73
2022/05/11 04:10:48;;;;;;;12.90;10.50;;;14.80;89.60;;;;;;4996046;28;20435;-73
2022/05/11 04:13:15;;;;;;;11.53;10.43;;;14.80;89.60;;;;;;4995928;28;20458;-72
2022/05/11 04:15:42;;;;;;;12.47;11.27;;;14.80;89.30;;;;;;4996329;28;20459;-74
2022/05/11 04:18:09;;;;;;;12.50;11.20;;;14.80;89.10;;;;;;4996414;28;20555;-73
2022/05/11 04:20:36;;;;;;;12.73;11.20;;;14.80;89.10;;;;;;4995620;28;20783;-73
2022/05/11 04:23:03;;;;;;;13.37;12.07;;;14.80;89.10;;;;;;4996285;28;20485;-73
2022/05/11 04:25:30;;;;;;;11.67;10.57;;;14.80;89.10;;;;;;4995893;28;20423;-74
2022/05/11 04:27:58;;;;;;;12.33;11.03;;;14.80;89.00;;;;;;4995368;28;20426;-74
2022/05/11 04:30:26;;;;;;;11.97;10.80;;;14.80;88.50;;;;;;4995357;28;20467;-72
2022/05/11 04:32:53;;;;;;;11.87;10.87;;;14.90;88.40;;;;;;4996423;28;20479;-73
2022/05/11 04:35:20;;;;;;;14.67;10.97;;;14.90;89.50;;;;;;4995933;28;20434;-73
2022/05/11 04:37:47;;;;;;;12.13;11.03;;;14.90;89.20;;;;;;4995882;28;20509;-73
2022/05/11 04:40:15;;;;;;;13.53;12.30;;;15.00;89.80;;;;;;4996570;28;20522;-73
2022/05/11 04:42:43;;;;;;;12.13;10.77;;;15.30;90.20;;;;;;4997137;28;20558;-74
2022/05/11 04:45:15;;;;;;;12.43;10.57;;;15.80;88.10;;;;;;4996431;28;20434;-73
2022/05/11 04:47:42;;;;;;;10.40;9.30;;;16.50;82.70;;;;;;4996236;28;20430;-72
2022/05/11 04:50:10;;;;;;;11.27;10.17;;;17.40;76.50;;;;;;4996250;28;20459;-73
2022/05/11 04:52:37;;;;;;;10.60;9.30;;;18.10;69.40;;;;;;4996534;28;20453;-74
2022/05/11 04:55:06;;;;;;;12.53;11.13;;;18.70;62.00;;;;;;4995946;28;20466;-73
2022/05/11 04:57:34;;;;;;;10.20;9.20;;;19.20;57.90;;;;;;4996229;28;20460;-73
2022/05/11 05:00:01;;;;;;;12.07;10.10;;;19.30;55.60;;;;;;4995578;28;20473;-73
2022/05/11 05:02:29;;;;;;;9.67;8.70;;;19.50;56.10;;;;;;4995184;28;20475;-73
2022/05/11 05:05:00;;;;;;;10.40;9.40;;;20.10;53.60;;;;;;4995643;28;20456;-72
2022/05/11 05:07:27;;;;;;;9.27;8.37;;;20.90;50.30;;;;;;4995024;28;20466;-73
2022/05/11 05:09:54;;;;;;;9.70;8.70;;;21.40;49.20;;;;;;4995455;28;20937;-73
2022/05/11 05:12:21;;;;;;;9.60;8.60;;;21.90;47.00;;;;;;4996177;28;21006;-72
2022/05/11 05:14:48;;;;;;;12.17;8.40;;;21.90;45.10;;;;;;4995417;28;20456;-72
2022/05/11 05:17:15;;;;;;;10.03;8.97;;;21.80;45.40;;;;;;4996892;28;20523;-73
2022/05/11 05:19:46;;;;;;;9.13;8.23;;;21.70;46.40;;;;;;5008424;28;20469;-74
2022/05/11 05:22:14;;;;;;;8.70;7.90;;;22.40;44.10;;;;;;4999793;28;20452;-73
2022/05/11 05:24:42;;;;;;;8.77;8.07;;;23.00;42.40;;;;;;5002710;28;20470;-73
2022/05/11 05:27:11;;;;;;;8.63;7.87;;;23.40;41.20;;;;;;4999271;28;20463;-73
2022/05/11 05:32:22;;;;;;;8.13;7.33;;;24.10;38.50;;;;;;4996076;28;20454;-72
2022/05/11 05:34:50;;;;;;;8.30;7.20;;;24.70;37.40;;;;;;4995201;28;21015;-71
2022/05/11 05:37:19;;;;;;;7.13;6.33;;;24.90;35.70;;;;;;4995589;28;20937;-72
2022/05/11 05:39:46;;;;;;;7.10;6.40;;;24.90;35.50;;;;;;4996543;28;21168;-73
2022/05/11 05:42:17;;;;;;;9.30;7.20;;;24.80;35.00;;;;;;5000484;28;20475;-73
2022/05/11 05:44:44;;;;;;;8.50;7.00;;;24.90;34.30;;;;;;5011660;28;20518;-72
2022/05/11 05:47:11;;;;;;;8.07;6.70;;;24.60;35.10;;;;;;5011390;28;20462;-74
2022/05/11 05:49:38;;;;;;;8.70;6.93;;;25.00;35.10;;;;;;5008261;28;20512;-73
2022/05/11 05:52:08;;;;;;;7.30;6.60;;;25.40;33.40;;;;;;5015142;28;20463;-74
2022/05/11 05:54:37;;;;;;;7.60;6.93;;;25.40;33.40;;;;;;5015079;28;20459;-74
2022/05/11 05:57:04;;;;;;;7.87;7.17;;;25.20;33.20;;;;;;5004197;28;20460;-73
2022/05/11 05:59:31;;;;;;;16.90;8.90;;;25.20;33.80;;;;;;4997701;28;20588;-72
2022/05/11 06:01:58;;;;;;;7.60;6.17;;;25.30;33.40;;;;;;4994999;28;20803;-72
2022/05/11 06:04:24;;;;;;;6.63;5.93;;;25.40;33.40;;;;;;4994977;28;20906;-75
2022/05/11 06:06:51;;;;;;;7.80;6.47;;;25.70;33.40;;;;;;4994408;28;20454;-72
2022/05/11 06:09:20;;;;;;;5.97;5.23;;;26.00;32.00;;;;;;4994915;28;20451;-72
2022/05/11 06:11:47;;;;;;;9.03;5.40;;;25.90;31.10;;;;;;4994122;28;20558;-74
2022/05/11 06:14:13;;;;;;;9.50;5.70;;;25.90;30.50;;;;;;4996322;28;20432;-73
2022/05/11 06:16:40;;;;;;;7.57;4.97;;;25.80;30.80;;;;;;4994830;28;20541;-73
2022/05/11 06:19:08;;;;;;;7.13;6.37;;;26.10;30.80;;;;;;4995047;28;20494;-74
2022/05/11 06:21:35;;;;;;;6.03;5.53;;;26.40;30.00;;;;;;4993709;28;20509;-72
2022/05/11 06:24:02;;;;;;;8.50;6.00;;;26.50;30.30;;;;;;4996053;28;20478;-72
2022/05/11 06:26:30;;;;;;;5.80;5.30;;;26.30;30.30;;;;;;5004932;28;20514;-74
2022/05/11 06:28:57;;;;;;;8.70;5.00;;;26.30;30.00;;;;;;5004169;28;20489;-71
2022/05/11 06:31:24;;;;;;;7.40;6.10;;;26.40;30.50;;;;;;5005470;28;20445;-71
2022/05/11 06:33:53;;;;;;;6.00;5.40;;;26.40;30.40;;;;;;4996547;28;20467;-71
2022/05/11 06:36:23;;;;;;;6.10;5.60;;;26.10;31.20;;;;;;4998707;28;20505;-73
2022/05/11 06:38:50;;;;;;;5.90;5.40;;;26.20;31.10;;;;;;4997797;28;20458;-72
2022/05/11 06:41:20;;;;;;;5.53;5.13;;;26.20;30.90;;;;;;4998375;28;20461;-72
2022/05/11 06:43:49;;;;;;;6.23;5.63;;;25.90;32.00;;;;;;5009657;28;20484;-73
2022/05/11 06:46:16;;;;;;;6.03;5.43;;;25.40;32.50;;;;;;5015387;28;20458;-73
2022/05/11 06:48:42;;;;;;;7.90;6.33;;;24.60;33.30;;;;;;5014822;28;20474;-72
2022/05/11 06:51:09;;;;;;;8.53;5.90;;;24.10;35.40;;;;;;5011846;28;20448;-72
2022/05/11 06:59:21;;;;;;;6.90;6.30;;;23.00;37.70;;;;;;4996256;28;20935;-72
2022/05/11 07:01:48;;;;;;;6.47;5.87;;;22.80;39.20;;;;;;4996306;28;20484;-73
2022/05/11 07:04:15;;;;;;;6.67;6.00;;;22.60;40.10;;;;;;4996485;28;20792;-73
2022/05/11 07:06:42;;;;;;;6.07;5.27;;;22.60;39.70;;;;;;4996101;28;20546;-72
2022/05/11 07:09:09;;;;;;;5.20;4.80;;;22.50;40.10;;;;;;4996136;28;20443;-71
2022/05/11 07:14:21;;;;;;;5.10;4.60;;;22.40;39.90;;;;;;4995979;28;20520;-72
2022/05/11 07:16:48;;;;;;;6.13;5.53;;;22.30;39.90;;;;;;4995979;28;20485;-73
2022/05/11 07:19:15;;;;;;;6.70;5.00;;;22.40;39.40;;;;;;4995926;28;20861;-73
2022/05/11 07:21:42;;;;;;;6.80;6.10;;;22.40;40.10;;;;;;4996037;28;20458;-72
2022/05/11 07:24:09;;;;;;;9.50;4.77;;;22.60;39.80;;;;;;4996016;28;20831;-72
2022/05/11 07:26:35;;;;;;;5.93;5.40;;;22.60;40.50;;;;;;4996069;28;20460;-73
2022/05/11 07:29:02;;;;;;;5.93;5.47;;;22.60;40.20;;;;;;4995473;28;20451;-72
2022/05/11 07:31:30;;;;;;;6.40;5.03;;;22.70;39.60;;;;;;4995821;28;20491;-73
2022/05/11 07:33:57;;;;;;;6.57;5.40;;;22.80;39.40;;;;;;4996254;28;21033;-75
2022/05/11 07:36:25;;;;;;;5.60;5.10;;;22.80;38.70;;;;;;4996017;28;20484;-73
2022/05/11 07:38:52;;;;;;;5.40;4.90;;;23.00;38.80;;;;;;4997058;28;20505;-72
2022/05/11 07:41:19;;;;;;;6.73;5.70;;;23.20;38.10;;;;;;5015864;28;20465;-74
2022/05/11 07:43:46;;;;;;;5.60;5.10;;;23.30;37.90;;;;;;5004481;28;20846;-73
2022/05/11 07:46:12;;;;;;;8.73;5.17;;;23.30;37.50;;;;;;5019484;28;20490;-71
2022/05/11 07:48:41;;;;;;;9.30;5.83;;;23.50;37.40;;;;;;5011892;28;20540;-73
2022/05/11 07:51:08;;;;;;;5.57;5.03;;;23.60;36.80;;;;;;4996483;28;20465;-73
2022/05/11 07:53:35;;;;;;;5.53;5.13;;;23.60;36.30;;;;;;4995820;28;20811;-73
2022/05/11 08:01:32;;;;;;;6.10;5.50;;;23.80;36.50;;;;;;4996290;28;20481;-73
2022/05/11 08:04:00;;;;;;;5.73;4.70;;;23.80;36.30;;;;;;4996330;28;20464;-73
2022/05/11 08:06:27;;;;;;;7.30;5.73;;;23.90;35.70;;;;;;4994933;28;20546;-74
2022/05/11 08:08:54;;;;;;;9.57;5.00;;;24.00;36.00;;;;;;4996113;28;20520;-73
2022/05/11 08:11:21;;;;;;;5.37;4.97;;;24.10;35.10;;;;;;4995975;28;20454;-73
2022/05/11 08:13:47;;;;;;;6.20;4.03;;;24.30;34.70;;;;;;4997094;28;20489;-73
2022/05/11 08:16:14;;;;;;;6.00;4.70;;;24.30;34.20;;;;;;4997041;28;20456;-73
2022/05/11 08:18:41;;;;;;;4.57;4.07;;;24.50;34.50;;;;;;4997275;28;20459;-72
2022/05/11 08:21:09;;;;;;;5.60;5.10;;;24.60;35.20;;;;;;4996774;28;20483;-73
2022/05/11 08:23:38;;;;;;;5.67;5.00;;;24.70;34.00;;;;;;4996834;28;20567;-73
2022/05/11 08:26:05;;;;;;;5.27;4.70;;;24.90;33.00;;;;;;4995793;28;20459;-73
2022/05/11 08:28:31;;;;;;;5.10;4.60;;;24.90;33.00;;;;;;4995588;28;20543;-73
2022/05/11 08:33:42;;;;;;;6.57;5.00;;;25.10;33.20;;;;;;4962819;28;20524;-73
2022/05/11 08:36:13;;;;;;;7.40;4.70;;;25.10;32.90;;;;;;4996192;28;20452;-73
2022/05/11 08:38:42;;;;;;;5.00;4.60;;;25.30;31.90;;;;;;4995837;28;20442;-73
2022/05/11 08:41:19;;;;;;;6.10;4.83;;;25.40;31.80;;;;;;4995018;28;20867;-73
2022/05/11 08:43:47;;;;;;;5.60;4.40;;;25.50;31.20;;;;;;4995504;28;20621;-73
2022/05/11 08:46:38;;;;;;;5.17;4.67;;;25.60;31.10;;;;;;4996283;28;20541;-73
2022/05/11 08:49:07;;;;;;;6.33;4.90;;;25.70;30.40;;;;;;4996799;28;20461;-72
2022/05/11 08:51:41;;;;;;;4.90;4.50;;;25.70;30.10;;;;;;4995510;28;20461;-74
2022/05/11 08:54:14;;;;;;;5.73;5.23;;;25.80;30.50;;;;;;4996184;28;20470;-73
2022/05/11 08:56:44;;;;;;;31.00;6.07;;;25.90;30.20;;;;;;4995688;28;20566;-72
2022/05/11 08:59:17;;;;;;;9.40;4.87;;;25.90;30.20;;;;;;4995166;28;21087;-74
2022/05/11 09:01:49;;;;;;;6.80;4.60;;;26.00;30.50;;;;;;4994777;28;20493;-72
2022/05/11 09:04:22;;;;;;;5.80;5.30;;;26.20;30.00;;;;;;4995164;28;20476;-74
2022/05/11 09:06:50;;;;;;;5.70;4.50;;;26.30;29.60;;;;;;4995536;28;20462;-72
2022/05/11 09:09:17;;;;;;;5.43;5.03;;;26.30;29.10;;;;;;4995601;28;20490;-72
2022/05/11 09:11:49;;;;;;;9.77;4.97;;;26.40;29.40;;;;;;4995665;28;20458;-73
2022/05/11 09:14:20;;;;;;;7.03;5.03;;;26.50;29.20;;;;;;4997163;28;20423;-73
2022/05/11 09:16:52;;;;;;;5.60;5.20;;;26.50;29.00;;;;;;5002535;28;20464;-72
2022/05/11 09:19:27;;;;;;;6.37;4.67;;;26.40;29.20;;;;;;5005360;28;20456;-75
2022/05/11 09:21:58;;;;;;;6.90;4.60;;;26.40;28.20;;;;;;5005268;28;20436;-74
2022/05/11 09:24:31;;;;;;;5.83;5.43;;;26.50;28.40;;;;;;5004628;28;20435;-74
2022/05/11 09:27:09;;;;;;;5.40;4.90;;;26.60;28.70;;;;;;4999034;28;20487;-73
2022/05/11 09:29:47;;;;;;;8.80;5.60;;;26.60;28.60;;;;;;4996871;28;20461;-73
2022/05/11 09:32:38;;;;;;;6.53;5.23;;;26.70;28.60;;;;;;4995994;28;20502;-74
2022/05/11 09:35:27;;;;;;;7.80;4.57;;;26.70;29.00;;;;;;4998001;28;20434;-73
2022/05/11 09:38:00;;;;;;;6.27;5.00;;;26.80;29.00;;;;;;4995624;28;20453;-73
2022/05/11 09:40:29;;;;;;;4.90;4.50;;;26.80;29.00;;;;;;4994496;28;20498;-72
2022/05/11 09:43:07;;;;;;;6.73;5.13;;;27.00;28.60;;;;;;4995059;28;20483;-75
2022/05/11 09:45:40;;;;;;;5.27;4.80;;;27.10;28.70;;;;;;4995521;28;20944;-72
2022/05/11 09:48:18;;;;;;;5.77;5.37;;;27.10;28.90;;;;;;4995601;28;20501;-73
2022/05/11 09:50:53;;;;;;;5.37;4.97;;;27.00;28.90;;;;;;4995089;28;20810;-74
2022/05/11 09:53:35;;;;;;;6.00;5.07;;;27.10;28.40;;;;;;4996079;28;20826;-74
2022/05/11 09:56:17;;;;;;;5.00;4.70;;;27.00;28.50;;;;;;4995615;28;21045;-73
2022/05/11 09:58:46;;;;;;;5.80;5.27;;;27.10;28.30;;;;;;5005498;28;20438;-72
2022/05/11 10:01:15;;;;;;;6.37;5.00;;;27.20;27.80;;;;;;5012057;28;20501;-73
2022/05/11 10:03:48;;;;;;;9.77;5.20;;;27.20;28.70;;;;;;4999503;28;21143;-73
2022/05/11 10:06:19;;;;;;;5.93;4.90;;;27.40;28.30;;;;;;5012712;28;20397;-72
2022/05/11 10:08:49;;;;;;;6.10;5.00;;;27.70;27.40;;;;;;5007660;28;20443;-74
2022/05/11 10:11:20;;;;;;;5.40;4.90;;;27.90;26.70;;;;;;4994517;28;20955;-73
2022/05/11 10:13:55;;;;;;;7.53;4.70;;;28.00;25.90;;;;;;4994612;28;20566;-73
2022/05/11 10:22:24;;;;;;;5.37;4.87;;;28.10;25.90;;;;;;4994366;28;20427;-75
2022/05/11 10:25:17;;;;;;;10.20;5.43;;;28.10;25.90;;;;;;4996117;28;20815;-71
2022/05/11 10:27:46;;;;;;;5.30;4.90;;;28.10;26.00;;;;;;4993637;28;20473;-72
2022/05/11 10:30:24;;;;;;;5.60;5.17;;;28.10;25.90;;;;;;4998455;28;20522;-74
2022/05/11 10:33:17;;;;;;;5.57;5.07;;;28.20;26.00;;;;;;4980063;28;20475;-73
2022/05/11 10:35:57;;;;;;;4.67;4.27;;;28.30;25.30;;;;;;4976666;28;20468;-76
2022/05/11 10:38:48;;;;;;;5.97;4.80;;;28.10;24.40;;;;;;4982268;28;20557;-73
2022/05/11 10:41:29;;;;;;;7.87;5.00;;;28.10;24.30;;;;;;4980684;28;20508;-76
2022/05/11 10:44:06;;;;;;;5.53;4.67;;;28.20;24.50;;;;;;4981531;28;20474;-73
2022/05/11 10:46:37;;;;;;;5.50;5.10;;;28.30;24.10;;;;;;4981259;28;20472;-74
2022/05/11 10:49:32;;;;;;;5.20;4.77;;;28.20;24.60;;;;;;4979551;28;20462;-73
2022/05/11 10:52:15;;;;;;;5.20;4.70;;;28.30;24.60;;;;;;4954673;28;20457;-71
2022/05/11 10:54:52;;;;;;;4.93;4.50;;;28.30;24.80;;;;;;4979869;28;20456;-73
2022/05/11 10:57:27;;;;;;;8.87;5.17;;;28.40;24.80;;;;;;4986227;28;20470;-73
2022/05/11 11:00:07;;;;;;;5.10;4.70;;;28.60;24.60;;;;;;4995198;28;20473;-74
2022/05/11 11:03:03;;;;;;;13.70;4.70;;;28.80;23.60;;;;;;4983762;28;20480;-72
2022/05/11 11:05:35;;;;;;;5.77;5.37;;;28.90;23.60;;;;;;4984229;28;20456;-73
2022/05/11 11:08:13;;;;;;;8.83;4.80;;;28.90;22.90;;;;;;4984386;28;20540;-73
2022/05/11 11:10:46;;;;;;;8.60;4.90;;;28.80;22.60;;;;;;4977920;28;20495;-73
2022/05/11 11:13:38;;;;;;;7.93;3.93;;;28.80;23.30;;;;;;4996812;23;20561;-75
2022/05/11 11:16:05;;;;;;;4.63;3.77;;;28.90;22.20;;;;;;4973653;28;20457;-76
2022/05/11 11:18:35;;;;;;;8.13;4.63;;;28.70;22.30;;;;;;4972647;28;20549;-76
2022/05/11 11:21:03;;;;;;;5.57;3.90;;;28.60;22.80;;;;;;4967962;28;20997;-75
2022/05/11 11:23:34;;;;;;;6.57;4.30;;;28.60;23.00;;;;;;4969748;28;20479;-77
2022/05/11 11:26:03;;;;;;;5.57;4.90;;;28.70;22.50;;;;;;4966711;29;20469;-77
2022/05/11 11:28:34;;;;;;;4.33;4.00;;;28.70;22.10;;;;;;4960572;29;20473;-77
2022/05/11 11:31:21;;;;;;;5.57;4.30;;;28.70;22.10;;;;;;4961524;29;20518;-75
2022/05/11 11:34:19;;;;;;;4.83;4.53;;;28.60;21.90;;;;;;4962543;28;20496;-77
2022/05/11 11:36:47;;;;;;;4.80;4.40;;;28.70;21.60;;;;;;4946772;28;20966;-78
2022/05/11 11:39:57;;;;;;;5.80;4.73;;;28.70;22.10;;;;;;4957620;28;21009;-76
2022/05/11 11:42:35;;;;;;;6.13;4.67;;;28.70;21.90;;;;;;4949480;28;20487;-77
2022/05/11 11:45:03;;;;;;;5.10;4.50;;;28.80;21.70;;;;;;4960209;28;20447;-77
2022/05/11 11:48:00;;;;;;;4.50;4.20;;;28.80;22.10;;;;;;4959487;29;20463;-75
2022/05/11 11:50:48;;;;;;;5.10;4.70;;;29.00;21.30;;;;;;4958207;29;20475;-76
2022/05/11 11:53:23;;;;;;;6.80;4.80;;;29.30;20.50;;;;;;4960290;28;20535;-77
2022/05/11 11:55:51;;;;;;;7.73;4.57;;;29.40;20.70;;;;;;4957022;29;20427;-76
2022/05/11 11:58:28;;;;;;;6.40;4.43;;;29.40;20.70;;;;;;4958740;29;20460;-76
2022/05/11 12:01:07;;;;;;;4.70;4.30;;;29.20;20.90;;;;;;4957478;29;20531;-77
2022/05/11 12:03:37;;;;;;;4.47;4.07;;;29.20;20.90;;;;;;4957315;28;20532;-77
2022/05/11 12:17:28;;;;;;;5.23;4.13;;;29.50;19.80;;;;;;4959301;29;20436;-76
2022/05/11 12:20:04;;;;;;;12.13;4.60;;;29.70;20.30;;;;;;4958363;29;20464;-76
2022/05/11 12:22:32;;;;;;;5.77;4.60;;;29.80;19.90;;;;;;4959903;28;20485;-77
2022/05/11 12:25:02;;;;;;;5.07;4.67;;;29.70;19.90;;;;;;4958723;29;20946;-76
2022/05/11 12:27:32;;;;;;;4.90;4.40;;;29.60;20.50;;;;;;4960332;28;20453;-76
2022/05/11 12:30:02;;;;;;;8.07;4.43;;;29.80;20.60;;;;;;4964622;29;20545;-75
2022/05/11 12:32:32;;;;;;;5.63;5.13;;;29.80;20.40;;;;;;4974184;28;20489;-76
2022/05/11 12:35:07;;;;;;;8.27;5.10;;;29.90;20.70;;;;;;4969750;29;20465;-75
2022/05/11 12:37:37;;;;;;;4.43;4.17;;;30.00;20.00;;;;;;4960699;29;20498;-78
2022/05/11 12:40:09;;;;;;;6.33;4.67;;;30.10;20.40;;;;;;4960708;29;20532;-79
2022/05/11 12:42:39;;;;;;;5.20;4.70;;;30.30;20.70;;;;;;4963369;28;20529;-77
2022/05/11 12:45:10;;;;;;;4.83;4.40;;;30.50;19.50;;;;;;4959599;29;20469;-78
2022/05/11 12:47:40;;;;;;;5.90;4.70;;;30.50;19.60;;;;;;4958830;29;20469;-76
2022/05/11 12:50:11;;;;;;;8.23;4.20;;;30.50;20.10;;;;;;4958582;29;20434;-77
2022/05/11 12:52:38;;;;;;;4.60;4.30;;;30.20;19.90;;;;;;4955466;28;20487;-79
2022/05/11 12:55:06;;;;;;;6.33;4.83;;;30.00;20.20;;;;;;4957210;29;20465;-78
2022/05/11 12:57:39;;;;;;;4.90;4.43;;;30.20;20.40;;;;;;4957185;28;20477;-80
2022/05/11 13:00:15;;;;;;;6.20;4.90;;;30.40;20.30;;;;;;4958839;28;20460;-77
2022/05/11 13:02:44;;;;;;;4.67;4.37;;;30.50;20.50;;;;;;4962794;28;20501;-76
2022/05/11 13:05:15;;;;;;;5.03;4.63;;;30.50;19.80;;;;;;4962340;29;20492;-75
2022/05/11 13:07:47;;;;;;;8.20;4.50;;;30.50;20.20;;;;;;4961490;29;20455;-77
2022/05/11 13:10:17;;;;;;;10.50;4.50;;;30.70;18.90;;;;;;4962672;29;20464;-77
2022/05/11 13:12:52;;;;;;;9.00;5.10;;;30.60;18.80;;;;;;4962922;28;20545;-77
2022/05/11 13:15:35;;;;;;;5.67;3.83;;;30.50;18.80;;;;;;4963574;29;20459;-75
2022/05/11 13:18:04;;;;;;;4.40;4.10;;;30.50;18.80;;;;;;4961762;29;20907;-77
2022/05/11 13:20:37;;;;;;;8.63;4.23;;;30.50;18.80;;;;;;4956505;29;20498;-77
2022/05/11 13:23:21;;;;;;;8.30;3.93;;;30.50;18.80;;;;;;4958606;28;20489;-76
2022/05/11 13:25:51;;;;;;;5.13;4.20;;;30.60;18.20;;;;;;4958960;28;20456;-76
2022/05/11 13:28:25;;;;;;;3.70;3.40;;;30.60;18.80;;;;;;4959173;29;20466;-77
2022/05/11 13:30:56;;;;;;;5.97;3.87;;;30.80;18.20;;;;;;4956705;29;20545;-76
2022/05/11 13:33:45;;;;;;;7.70;3.47;;;30.80;17.30;;;;;;4959684;28;20489;-76
2022/05/11 13:36:21;;;;;;;3.20;3.00;;;30.80;16.70;;;;;;4951699;28;20475;-77
2022/05/11 13:39:00;;;;;;;3.93;3.30;;;30.60;16.60;;;;;;4962000;29;20571;-77
2022/05/11 13:41:31;;;;;;;3.43;3.23;;;30.50;16.70;;;;;;4960005;29;20536;-77